KPGV/PGV METAR and TAF weather

Enter ICAO airport designator
Station Type Date Time Source
KPGV METAR 2021/07/30 23:35 UTC NOAA

KPGV 302335Z AUTO 00000KT 7SM CLR 29/26 A2990 RMK AO2


Station Type Date Time Source
KPGV Decoded METAR 2021/07/30 23:35 UTC NOAA

Pitt-Greenville Airport, NC, United States (KPGV) 35-38N 077-24W
Jul 30, 2021 - 07:35 PM EDT / 2021.07.30 2335 UTC
Wind: Calm:0
Visibility: 7 mile(s):0
Sky conditions: clear
Temperature: 84 F (29 C)
Dew Point: 78 F (26 C)
Relative Humidity: 83%
Pressure (altimeter): 29.9 in. Hg (1012 hPa)
ob: KPGV 302335Z AUTO 00000KT 7SM CLR 29/26 A2990 RMK AO2
cycle: 23

Station Type Date Time Source
KPGV TAF 2021/07/30 18:52 UTC NOAA

TAF KPGV 301749Z 3018/3118 25008G13KT P6SM VCTS SCT050CB
TEMPO 3019/3021 VRB20G30KT SCT007 BKN015CB
FM302300 00000KT P6SM FEW050
FM311000 04007KT P6SM BKN020
FM311400 05008G13KT P6SM SCT026
AMD LTD TO CLD VIS AND WIND

Example: see airport list